Flight Track Log - Related Links

Times and Time Zones

All times are in EDT time to prevent confusion due to time zone crossing. See the AAY804 flight status page for this flight to view local times or setup timezone preferences in your user account.

Time Position Orientation Groundspeed Altitude Reporting Facility
EDT Latitude Longitude Course Direction KTS km/h feet Rate Location/Type
Sun 09:28:10 27.9000 -82.6833 180° South 144 267 500  Level Tampa TRACON
Sun 09:29:22 27.8333 -82.6833 180° South 207 383 1.700 1.864 Climbing Tampa TRACON
Sun 09:30:22 27.7833 -82.7167 211° Southwest 234 433 4.600 2.800 Climbing Tampa TRACON
Sun 09:31:22 27.7667 -82.7667 249° West 259 480 7.300 2.433 Climbing Tampa TRACON
Sun 09:33:22 27.9272 -82.8014 349° North 309 573 11.900 1.924 Climbing Miami Center
Sun 09:39:44 28.5776 -82.8956 353° North 417 772 23.400 1.813 Climbing FlightAware ADS-B
Sun 09:40:19 28.6455 -82.9056 353° North 423 784 24.500 1.345 Climbing FlightAware ADS-B
Sun 09:43:27 29.0215 -82.9616 353° North 449 832 28.400 1.168 Climbing FlightAware ADS-B
Sun 09:44:41 29.1728 -82.9847 353° North 453 838 29.600 1.007 Climbing Miami Center
Sun 09:45:44 29.3019 -83.0044 352° North 453 838 30.700 1.122 Climbing Jacksonville Center
Sun 09:46:44 29.4333 -83.0236 353° North 458 848 31.900 1.300 Climbing Jacksonville Center
Sun 09:47:44 29.5525 -83.0453 351° North 477 884 33.300 1.050 Climbing Jacksonville Center
Sun 09:48:44 29.6756 -83.0861 344° North 477 884 34.000 800 Climbing Jacksonville Center
Sun 09:49:44 29.7861 -83.1392 337° Northwest 447 827 34.900 950 Climbing Jacksonville Center
Sun 09:50:44 29.9008 -83.1897 339° North 440 814 35.900 550 Climbing Jacksonville Center
Sun 09:51:44 30.0300 -83.2500 338° Northwest 440 814 36.000 50 Climbing Jacksonville Center
Sun 09:52:44 30.1322 -83.2961 339° North 440 814 36.000  Level Jacksonville Center
Sun 09:53:44 30.2469 -83.3494 338° Northwest 435 806 36.000  Level Jacksonville Center
Sun 09:54:44 30.3594 -83.4031 338° Northwest 435 806 36.000  Level Jacksonville Center
Sun 09:55:44 30.4719 -83.4567 338° Northwest 435 806 36.000 -50 Level Jacksonville Center
Sun 09:56:44 30.5867 -83.5103 338° Northwest 435 806 35.900  Descending Jacksonville Center
Sun 09:57:44 30.7072 -83.5692 337° Northwest 435 806 36.000 50 Climbing Jacksonville Center
Sun 09:58:44 30.8219 -83.6231 338° Northwest 430 797 36.000  Level Jacksonville Center
Sun 09:59:44 30.9364 -83.6772 338° Northwest 435 806 36.000  Level Jacksonville Center
Sun 10:00:44 31.0508 -83.7317 338° Northwest 435 806 36.000  Level Jacksonville Center
Sun 10:02:40 31.2539 -83.8325 337° Northwest 445 824 36.000  Level Atlanta Center
Sun 10:03:40 31.3708 -83.8856 339° North 445 824 36.000  Level Atlanta Center
Sun 10:04:40 31.4836 -83.9414 337° Northwest 445 824 36.000  Level Atlanta Center
Sun 10:05:40 31.6025 -83.9803 344° North 440 814 36.000  Level Atlanta Center
Sun 10:06:40 31.7342 -84.0094 349° North 440 814 36.000  Level Atlanta Center
Sun 10:07:40 31.8553 -84.0364 349° North 440 814 36.000  Level Atlanta Center
Sun 10:08:40 31.9719 -84.0608 350° North 435 806 36.000 -400 Level Atlanta Center
Sun 10:09:40 32.0931 -84.0856 350° North 429 795 35.200 -900 Descending Atlanta Center
Sun 10:10:40 32.2119 -84.1125 349° North 429 795 34.200 -600 Descending Atlanta Center
Sun 10:11:40 32.3311 -84.1397 349° North 429 795 34.000 -100 Descending Atlanta Center
Sun 10:12:40 32.4500 -84.1669 349° North 429 795 34.000  Level Atlanta Center
Sun 10:13:40 32.5711 -84.1942 349° North 429 795 34.000  Level Atlanta Center
Sun 10:14:40 32.6919 -84.2214 349° North 429 795 34.000 -150 Level Atlanta Center
Sun 10:15:40 32.8150 -84.2489 349° North 434 803 33.700 -600 Descending Atlanta Center
Sun 10:16:40 32.9342 -84.2789 348° North 434 803 32.800 -950 Descending Atlanta Center
Sun 10:17:40 33.0550 -84.3017 351° North 434 803 31.800 -1.000 Descending Atlanta Center
Sun 10:18:40 33.1678 -84.3317 347° North 427 790 30.800 -900 Descending Atlanta Center
Sun 10:19:40 33.2844 -84.3544 351° North 422 782 30.000 -800 Descending Atlanta Center
Sun 10:20:40 33.3825 -84.3797 348° North 414 766 29.200 -900 Descending Atlanta Center
Sun 10:21:40 33.4953 -84.4050 349° North 414 766 28.200 -2.041 Descending Atlanta Center
Sun 10:24:44 34.1097 -84.6944 336° Northwest 373 690 20.900 -2.141 Descending FlightAware ADS-B (KDZJ)
Sun 10:25:41 34.1981 -84.7425 335° Northwest 355 658 19.600 776 Descending FlightAware ADS-B (KDZJ)
Sun 10:26:40 34.0203 -84.6453 335° Northwest 397 735 22.400 655 Climbing Atlanta Center
Sun 10:27:40 34.1139 -84.6986 335° Northwest 385 713 20.900 -1.500 Descending Atlanta Center
Sun 10:28:40 34.2075 -84.7497 336° Northwest 374 692 19.400 -1.550 Descending Atlanta Center
Sun 10:29:40 34.2992 -84.8006 335° Northwest 368 681 17.800 -1.550 Descending Atlanta Center
Sun 10:30:40 34.3864 -84.8467 336° Northwest 356 660 16.300 -1.600 Descending Atlanta Center
Sun 10:31:40 34.4739 -84.8931 336° Northwest 351 650 14.600 -1.750 Descending Atlanta Center
Sun 10:32:40 34.5675 -84.9192 347° North 346 641 12.800 -1.950 Descending Atlanta Center
Sun 10:33:40 34.6572 -84.9378 350° North 336 623 10.700 -1.600 Descending Atlanta Center
Sun 10:34:40 34.7447 -84.9614 347° North 331 613 9.600 -1.450 Descending Atlanta Center
Sun 10:35:40 34.8156 -84.9775 349° North 308 570 7.800 -1.900 Descending Atlanta Center
Sun 10:36:40 34.8883 -84.9986 347° North 284 526 5.800 -1.900 Descending Atlanta Center
Sun 10:37:40 34.9633 -85.0169 349° North 277 513 4.000 -1.200 Descending Atlanta Center
Sun 10:38:40 35.0300 -85.0381 345° North 266 492 3.400 -500 Descending Atlanta Center
Sun 10:39:40 35.0903 -85.0542 348° North 240 444 3.000 -400 Descending Atlanta Center
Sun 10:41:00 35.0333 -85.2000 248° West  Level FlightAware Approximate
Sun 10:48:00 35.0352 -85.2036 248° West  Level Estimated
Sun 10:49:00 35.0352 -85.2036 123° Southeast  Level Estimated
Sun 10:50:00 35.0333 -85.2000 248° West  Level FlightAware Approximate
Sun 10:51:00 35.0352 -85.2036 North  Level Estimated
Sun 10:52:00 35.0333 -85.2000 248° West  Level FlightAware Approximate
Sun 10:53:00 35.0352 -85.2036 North  Level Estimated

Login

Don't have an account? Register now (free) for customized features, flight alerts, and more!